createdAt,value
2022-10-21T00:01:22.559Z,16.42
2022-10-21T00:04:29.420Z,19.20
2022-10-21T00:07:35.171Z,18.02
2022-10-21T00:10:41.720Z,21.05
2022-10-21T00:13:48.669Z,21.62
2022-10-21T00:16:55.179Z,24.70
2022-10-21T00:19:53.775Z,18.77
2022-10-21T00:23:00.276Z,25.97
2022-10-21T00:26:12.527Z,22.25
2022-10-21T00:29:19.220Z,18.10
2022-10-21T00:32:25.610Z,23.20
2022-10-21T00:35:31.314Z,19.32
2022-10-21T00:38:36.873Z,21.20
2022-10-21T00:41:42.788Z,20.70
2022-10-21T00:44:51.357Z,22.32
2022-10-21T00:48:09.237Z,26.40
2022-10-21T00:51:21.622Z,18.98
2022-10-21T00:54:27.096Z,19.52
2022-10-21T00:57:34.056Z,21.33
2022-10-21T01:00:40.206Z,17.42
2022-10-21T01:03:46.475Z,16.45
2022-10-21T01:06:52.461Z,13.70
2022-10-21T01:09:57.392Z,13.62
2022-10-21T01:13:50.979Z,14.63
2022-10-21T01:17:26.433Z,18.55
2022-10-21T01:20:53.152Z,19.12
2022-10-21T01:24:18.592Z,18.55
2022-10-21T01:27:27.719Z,19.50
2022-10-21T01:30:54.438Z,24.23
2022-10-21T01:34:06.738Z,25.15
2022-10-21T01:37:29.067Z,31.05
2022-10-21T01:40:38.217Z,28.65
2022-10-21T01:43:59.818Z,23.30
2022-10-21T01:47:15.600Z,22.13
2022-10-21T01:50:25.455Z,24.55
2022-10-21T01:53:21.782Z,22.67
2022-10-21T01:56:28.269Z,20.05
2022-10-21T01:59:34.375Z,27.87
2022-10-21T02:02:43.048Z,18.25
2022-10-21T02:05:48.550Z,13.95
2022-10-21T02:08:56.080Z,19.23
2022-10-21T02:12:04.807Z,14.23
2022-10-21T02:15:10.722Z,14.65
2022-10-21T02:18:25.943Z,12.93
2022-10-21T02:21:34.084Z,17.42
2022-10-21T02:24:53.411Z,17.62
2022-10-21T02:27:53.968Z,18.92
2022-10-21T02:31:22.053Z,15.50
2022-10-21T02:34:55.700Z,18.23
2022-10-21T02:38:29.120Z,15.32
2022-10-21T02:41:36.789Z,21.62
2022-10-21T02:44:42.625Z,19.80
2022-10-21T02:47:44.842Z,21.80
2022-10-21T02:50:51.099Z,17.50
2022-10-21T02:53:55.902Z,13.93
2022-10-21T02:57:02.559Z,21.25
2022-10-21T03:00:09.229Z,19.55
2022-10-21T03:03:15.649Z,15.35
2022-10-21T03:06:21.643Z,17.40
2022-10-21T03:09:27.239Z,21.85
2022-10-21T03:12:34.238Z,18.82
2022-10-21T03:15:41.042Z,17.52
2022-10-21T03:18:46.663Z,16.20
2022-10-21T03:21:53.555Z,17.37
2022-10-21T03:25:01.186Z,17.87
2022-10-21T03:28:07.375Z,28.90
2022-10-21T03:31:13.219Z,18.20
2022-10-21T03:34:19.011Z,20.17
2022-10-21T03:37:24.701Z,14.87
2022-10-21T03:40:30.918Z,19.62
2022-10-21T03:43:38.742Z,15.60
2022-10-21T03:46:43.398Z,20.82
2022-10-21T03:49:42.189Z,17.15
2022-10-21T03:52:27.621Z,21.37
2022-10-21T03:55:20.387Z,17.07
2022-10-21T03:58:07.346Z,18.00
2022-10-21T04:01:01.592Z,16.20
2022-10-21T04:03:55.136Z,15.58
2022-10-21T04:07:01.130Z,19.50
2022-10-21T04:10:06.240Z,18.65
2022-10-21T04:13:12.571Z,23.80
2022-10-21T04:16:21.254Z,19.27
2022-10-21T04:19:32.987Z,20.27
2022-10-21T04:22:39.727Z,19.57
2022-10-21T04:25:44.699Z,18.30
2022-10-21T04:28:49.948Z,17.57
2022-10-21T04:35:01.678Z,22.30
2022-10-21T04:38:08.984Z,19.15
2022-10-21T04:41:16.790Z,22.52
2022-10-21T04:44:22.657Z,18.92
2022-10-21T04:47:29.210Z,20.17
2022-10-21T04:50:34.816Z,18.77
2022-10-21T04:53:41.187Z,21.65
2022-10-21T04:56:40.475Z,24.90
2022-10-21T04:59:26.383Z,22.48
2022-10-21T05:02:22.994Z,19.00
2022-10-21T05:05:08.730Z,26.15
2022-10-21T05:08:02.268Z,24.30
2022-10-21T05:11:12.738Z,23.65
2022-10-21T05:14:22.507Z,23.57
2022-10-21T05:17:26.936Z,22.17
2022-10-21T05:20:33.337Z,20.08
2022-10-21T05:23:40.856Z,17.77
2022-10-21T05:26:46.497Z,18.98
2022-10-21T05:29:52.667Z,23.18
2022-10-21T05:32:59.501Z,22.48
2022-10-21T05:36:20.534Z,23.07
2022-10-21T05:39:24.994Z,23.85
2022-10-21T05:42:30.629Z,20.20
2022-10-21T05:45:36.781Z,22.07
2022-10-21T05:48:42.971Z,21.87
2022-10-21T05:51:47.891Z,22.87
2022-10-21T05:54:59.488Z,25.65
2022-10-21T05:58:05.278Z,25.72
2022-10-21T06:01:12.664Z,25.45
2022-10-21T06:04:18.429Z,27.87
2022-10-21T06:07:24.229Z,31.75
2022-10-21T06:10:29.938Z,30.80
2022-10-21T06:13:35.408Z,26.20
2022-10-21T06:16:41.925Z,22.85
2022-10-21T06:19:50.181Z,17.77
2022-10-21T06:22:56.115Z,18.02
2022-10-21T06:26:17.075Z,21.15
2022-10-21T06:29:22.967Z,15.38
2022-10-21T06:32:28.630Z,14.47
2022-10-21T06:35:35.083Z,16.75
2022-10-21T06:38:43.884Z,13.62
2022-10-21T06:41:50.094Z,13.08
2022-10-21T06:45:00.162Z,15.03
2022-10-21T06:47:58.411Z,11.97
2022-10-21T06:51:04.540Z,12.55
2022-10-21T06:54:12.757Z,14.05
2022-10-21T06:57:18.605Z,12.37
2022-10-21T07:00:25.669Z,13.93
2022-10-21T07:03:31.310Z,11.70
2022-10-21T07:06:37.218Z,13.15
2022-10-21T07:09:44.055Z,10.00
2022-10-21T07:12:50.643Z,11.70
2022-10-21T07:15:56.614Z,14.60
2022-10-21T07:18:56.935Z,12.18
2022-10-21T07:22:02.307Z,14.80
2022-10-21T07:25:08.574Z,11.88
2022-10-21T07:28:14.162Z,10.32
2022-10-21T07:31:20.104Z,8.93
2022-10-21T07:34:26.965Z,8.43
2022-10-21T07:37:33.690Z,10.03
2022-10-21T07:40:38.654Z,10.85
2022-10-21T07:43:45.137Z,7.85
2022-10-21T07:46:52.844Z,7.70
2022-10-21T07:49:58.982Z,8.73
2022-10-21T07:53:11.985Z,9.75
2022-10-21T07:56:22.279Z,6.25
2022-10-21T07:59:28.487Z,7.20
2022-10-21T08:02:35.508Z,7.67
2022-10-21T08:05:43.083Z,7.80
2022-10-21T08:08:48.921Z,8.18
2022-10-21T08:11:55.279Z,9.40
2022-10-21T08:14:55.971Z,4.17
2022-10-21T08:17:49.513Z,4.85
2022-10-21T08:20:56.484Z,6.10
2022-10-21T08:24:01.580Z,7.83
2022-10-21T08:27:07.179Z,5.80
2022-10-21T08:30:13.079Z,4.90
2022-10-21T08:33:19.577Z,4.55
2022-10-21T08:36:28.880Z,4.17
2022-10-21T08:39:34.397Z,7.22
2022-10-21T08:42:40.517Z,4.28
2022-10-21T08:45:59.824Z,4.08
2022-10-21T08:49:10.875Z,3.60
2022-10-21T08:52:20.332Z,4.17
2022-10-21T08:55:53.664Z,3.72
2022-10-21T08:59:02.060Z,4.35
2022-10-21T09:02:31.700Z,3.92
2022-10-21T09:06:02.764Z,4.35
2022-10-21T09:09:22.692Z,3.27
2022-10-21T09:12:48.006Z,3.77
2022-10-21T09:16:05.673Z,3.70
2022-10-21T09:19:56.205Z,3.83
2022-10-21T09:23:46.636Z,4.55
2022-10-21T09:27:02.583Z,5.55
2022-10-21T09:30:17.354Z,4.12
2022-10-21T09:33:39.985Z,4.75
2022-10-21T09:36:54.742Z,5.37
2022-10-21T09:40:05.329Z,8.00
2022-10-21T09:43:12.792Z,7.67
2022-10-21T09:46:12.028Z,8.83
2022-10-21T09:49:36.372Z,7.25
2022-10-21T09:51:53.970Z,5.78
2022-10-21T09:54:59.415Z,7.47
2022-10-21T09:58:15.079Z,9.90
2022-10-21T10:01:23.653Z,12.47
2022-10-21T10:04:46.983Z,11.83
2022-10-21T10:07:52.753Z,10.15
2022-10-21T10:10:57.889Z,11.05
2022-10-21T10:14:08.136Z,11.30
2022-10-21T10:20:42.473Z,9.18
2022-10-21T10:24:01.734Z,10.72
2022-10-21T10:27:06.773Z,11.88
2022-10-21T10:30:13.383Z,10.15
2022-10-21T10:33:28.808Z,11.18
2022-10-21T10:36:48.588Z,9.88
2022-10-21T10:39:54.893Z,6.22
2022-10-21T10:43:01.416Z,8.98
2022-10-21T10:46:13.705Z,5.53
2022-10-21T10:49:32.950Z,6.17
2022-10-21T10:52:39.552Z,8.10
2022-10-21T10:55:45.339Z,9.58
2022-10-21T10:58:52.861Z,15.88
2022-10-21T11:02:26.173Z,7.03
2022-10-21T11:05:40.579Z,4.37
2022-10-21T11:08:50.432Z,3.40
2022-10-21T11:12:03.025Z,2.55
2022-10-21T11:15:12.128Z,3.20
2022-10-21T11:18:30.429Z,4.67
2022-10-21T11:22:03.770Z,2.40
2022-10-21T11:25:27.306Z,4.05
2022-10-21T11:28:54.457Z,2.42
2022-10-21T11:32:16.104Z,2.70
2022-10-21T11:35:39.000Z,5.60
2022-10-21T11:39:11.019Z,2.92
2022-10-21T11:42:48.816Z,3.60
2022-10-21T11:46:14.103Z,2.87
2022-10-21T11:49:36.369Z,2.67
2022-10-21T11:56:47.332Z,1.67
2022-10-21T12:00:09.493Z,2.25
2022-10-21T12:03:34.586Z,3.67
2022-10-21T12:07:00.640Z,2.85
2022-10-21T12:10:33.517Z,2.00
2022-10-21T12:14:04.867Z,2.75
2022-10-21T12:17:11.342Z,2.12
2022-10-21T12:20:23.711Z,3.77
2022-10-21T12:23:32.095Z,2.30
2022-10-21T12:26:47.429Z,1.87
2022-10-21T12:30:15.686Z,2.00
2022-10-21T12:33:52.599Z,2.55
2022-10-21T12:36:55.912Z,2.80
2022-10-21T12:40:03.990Z,1.65
2022-10-21T12:43:37.641Z,1.82
2022-10-21T12:46:57.852Z,2.02
2022-10-21T12:50:21.920Z,2.65
2022-10-21T12:53:49.609Z,1.98
2022-10-21T12:57:02.012Z,2.83
2022-10-21T13:00:07.278Z,2.22
2022-10-21T13:03:26.496Z,4.20
2022-10-21T13:06:32.624Z,2.17
2022-10-21T13:10:05.423Z,2.00
2022-10-21T13:13:35.171Z,1.70
2022-10-21T13:16:43.703Z,2.70
2022-10-21T13:19:48.753Z,5.00
2022-10-21T13:23:01.802Z,4.10
2022-10-21T13:26:28.169Z,1.70
2022-10-21T13:29:52.141Z,2.27
2022-10-21T13:32:59.269Z,2.60
2022-10-21T13:36:10.904Z,2.62
2022-10-21T13:39:22.262Z,2.42
2022-10-21T13:42:28.677Z,1.92
2022-10-21T13:45:44.735Z,2.52
2022-10-21T13:48:55.383Z,2.17
2022-10-21T13:52:01.714Z,3.08
2022-10-21T13:55:08.114Z,1.75
2022-10-21T13:58:14.532Z,1.85
2022-10-21T14:01:30.998Z,2.60
2022-10-21T14:04:40.246Z,2.17
2022-10-21T14:07:46.819Z,4.47
2022-10-21T14:10:52.678Z,2.40
2022-10-21T14:13:58.125Z,2.55
2022-10-21T14:17:17.775Z,5.60
2022-10-21T14:20:29.159Z,2.22
2022-10-21T14:23:35.324Z,4.20
2022-10-21T14:26:41.045Z,4.40
2022-10-21T14:29:49.011Z,5.65
2022-10-21T14:32:56.954Z,3.70
2022-10-21T14:36:25.887Z,5.75
2022-10-21T14:39:33.371Z,5.20
2022-10-21T14:42:39.907Z,5.42
2022-10-21T14:45:52.802Z,4.12
2022-10-21T14:49:12.320Z,4.40
2022-10-21T14:52:21.534Z,5.45
2022-10-21T14:55:38.851Z,6.90
2022-10-21T14:58:53.863Z,9.35
2022-10-21T15:01:59.643Z,5.45
2022-10-21T15:05:08.622Z,7.33
2022-10-21T15:08:43.659Z,6.67
2022-10-21T15:11:52.920Z,9.13
2022-10-21T15:14:58.453Z,5.72
2022-10-21T15:18:07.431Z,7.33
2022-10-21T15:21:29.965Z,8.28
2022-10-21T15:24:56.427Z,11.57
2022-10-21T15:28:03.560Z,8.70
2022-10-21T15:31:09.731Z,9.93
2022-10-21T15:34:16.512Z,79.37
2022-10-21T15:37:23.276Z,61.20
2022-10-21T15:40:28.802Z,508.10
2022-10-21T15:43:34.857Z,1999.90
2022-10-21T15:46:41.154Z,1999.90
2022-10-21T15:49:56.760Z,1999.90
2022-10-21T15:53:02.329Z,1152.70
2022-10-21T15:56:07.878Z,942.45
2022-10-21T15:59:13.539Z,776.80
2022-10-21T16:02:19.214Z,287.65
2022-10-21T16:05:24.935Z,156.55
2022-10-21T16:08:30.549Z,67.37
2022-10-21T16:11:41.033Z,113.97
2022-10-21T16:14:44.900Z,178.75
2022-10-21T16:17:51.493Z,211.70
2022-10-21T16:20:58.570Z,160.70
2022-10-21T16:24:05.390Z,215.95
2022-10-21T16:27:11.123Z,187.68
2022-10-21T16:30:32.549Z,173.82
2022-10-21T16:33:39.759Z,151.82
2022-10-21T16:36:45.986Z,127.27
2022-10-21T16:39:52.462Z,145.15
2022-10-21T16:42:57.870Z,112.50
2022-10-21T16:46:03.595Z,96.72
2022-10-21T16:49:11.991Z,105.87
2022-10-21T16:52:17.191Z,527.73
2022-10-21T16:55:27.107Z,469.13
2022-10-21T16:58:33.323Z,298.35
2022-10-21T17:01:40.178Z,185.50
2022-10-21T17:04:45.860Z,118.25
2022-10-21T17:07:52.447Z,122.47
2022-10-21T17:10:58.788Z,47.30
2022-10-21T17:14:05.456Z,26.15
2022-10-21T17:17:11.256Z,44.20
2022-10-21T17:20:17.642Z,27.82
2022-10-21T17:23:24.788Z,24.20
2022-10-21T17:26:30.964Z,22.20
2022-10-21T17:29:36.772Z,31.97
2022-10-21T17:35:41.867Z,27.95
2022-10-21T17:38:48.841Z,23.98
2022-10-21T17:41:55.378Z,27.45
2022-10-21T17:45:03.794Z,28.40
2022-10-21T17:48:10.201Z,29.42
2022-10-21T17:51:17.105Z,33.70
2022-10-21T17:54:26.516Z,25.82
2022-10-21T17:57:31.005Z,29.05
2022-10-21T18:00:39.952Z,33.60
2022-10-21T18:03:45.614Z,26.00
2022-10-21T18:06:52.617Z,27.95
2022-10-21T18:09:58.074Z,32.60
2022-10-21T18:12:57.888Z,35.05
2022-10-21T18:15:49.573Z,32.50
2022-10-21T18:21:30.569Z,26.48
2022-10-21T18:24:26.882Z,31.30
2022-10-21T18:27:12.667Z,27.75
2022-10-21T18:30:06.003Z,32.08
2022-10-21T18:32:58.954Z,33.05
2022-10-21T18:36:05.119Z,26.05
2022-10-21T18:39:12.565Z,30.52
2022-10-21T18:42:19.929Z,33.95
2022-10-21T18:45:25.876Z,36.05
2022-10-21T18:48:31.473Z,36.30
2022-10-21T18:51:37.543Z,37.53
2022-10-21T18:54:36.669Z,36.88
2022-10-21T18:57:43.061Z,38.40
2022-10-21T19:00:50.971Z,54.30
2022-10-21T19:03:58.891Z,40.48
2022-10-21T19:07:06.168Z,41.40
2022-10-21T19:10:13.028Z,40.33
2022-10-21T19:13:19.728Z,28.38
2022-10-21T19:16:25.686Z,35.05
2022-10-21T19:19:35.901Z,36.42
2022-10-21T19:22:39.944Z,38.23
2022-10-21T19:25:47.119Z,39.92
2022-10-21T19:28:53.742Z,50.45
2022-10-21T19:32:00.404Z,44.83
2022-10-21T19:35:07.501Z,52.88
2022-10-21T19:38:20.857Z,42.08
2022-10-21T19:41:27.581Z,36.45
2022-10-21T19:44:34.749Z,43.92
2022-10-21T19:47:41.307Z,56.58
2022-10-21T19:50:47.753Z,45.20
2022-10-21T19:53:54.265Z,40.55
2022-10-21T19:57:00.463Z,45.28
2022-10-21T20:00:05.859Z,45.43
2022-10-21T20:03:10.999Z,44.67
2022-10-21T20:06:24.694Z,41.95
2022-10-21T20:09:32.817Z,38.17
2022-10-21T20:12:38.836Z,38.02
2022-10-21T20:15:47.206Z,33.78
2022-10-21T20:18:54.420Z,35.00
2022-10-21T20:22:00.271Z,34.78
2022-10-21T20:25:09.296Z,29.75
2022-10-21T20:28:14.528Z,32.80
2022-10-21T20:31:23.757Z,33.10
2022-10-21T20:34:28.466Z,34.90
2022-10-21T20:37:34.748Z,40.70
2022-10-21T20:40:40.655Z,34.03
2022-10-21T20:43:45.456Z,37.90
2022-10-21T20:46:51.287Z,39.03
2022-10-21T20:49:57.068Z,37.50
2022-10-21T20:53:03.908Z,34.75
2022-10-21T20:56:12.999Z,43.33
2022-10-21T20:59:19.368Z,38.40
2022-10-21T21:02:25.288Z,48.33
2022-10-21T21:05:31.596Z,53.87
2022-10-21T21:08:41.479Z,36.80
2022-10-21T21:11:46.167Z,33.15
2022-10-21T21:14:52.264Z,36.90
2022-10-21T21:18:03.190Z,37.67
2022-10-21T21:21:10.469Z,35.88
2022-10-21T21:24:15.948Z,36.75
2022-10-21T21:27:21.565Z,38.50
2022-10-21T21:30:26.884Z,37.88
2022-10-21T21:33:32.826Z,33.18
2022-10-21T21:36:38.494Z,32.93
2022-10-21T21:39:44.932Z,31.37
2022-10-21T21:42:50.608Z,30.77
2022-10-21T21:46:02.405Z,31.48
2022-10-21T21:49:10.501Z,32.33
2022-10-21T21:52:16.008Z,30.45
2022-10-21T21:55:22.178Z,32.23
2022-10-21T21:58:27.976Z,31.30
2022-10-21T22:01:35.692Z,28.65
2022-10-21T22:04:42.418Z,28.60
2022-10-21T22:07:47.159Z,29.90
2022-10-21T22:10:53.447Z,29.57
2022-10-21T22:14:00.113Z,27.45
2022-10-21T22:17:06.998Z,27.30
2022-10-21T22:20:12.681Z,27.15
2022-10-21T22:23:18.115Z,29.37
2022-10-21T22:26:24.178Z,29.48
2022-10-21T22:29:30.141Z,30.65
2022-10-21T22:32:36.432Z,28.12
2022-10-21T22:35:43.250Z,26.37
2022-10-21T22:38:49.894Z,25.35
2022-10-21T22:41:56.301Z,31.15
2022-10-21T22:45:02.623Z,31.57
2022-10-21T22:48:08.008Z,31.52
2022-10-21T22:51:13.769Z,30.68
2022-10-21T22:54:42.965Z,32.75
2022-10-21T22:57:25.814Z,35.20
2022-10-21T23:00:31.555Z,29.05
2022-10-21T23:03:37.135Z,25.92
2022-10-21T23:06:48.325Z,28.23
2022-10-21T23:09:57.431Z,32.60
2022-10-21T23:13:03.829Z,28.25
2022-10-21T23:16:09.550Z,28.95
2022-10-21T23:19:16.386Z,32.00
2022-10-21T23:22:22.390Z,26.20
2022-10-21T23:25:29.707Z,29.52
2022-10-21T23:28:36.038Z,35.13
2022-10-21T23:31:41.705Z,26.85
2022-10-21T23:34:48.071Z,32.20
2022-10-21T23:37:54.287Z,35.30
2022-10-21T23:40:59.961Z,31.93
2022-10-21T23:43:52.759Z,29.60
2022-10-21T23:46:59.458Z,32.63
2022-10-21T23:50:05.230Z,25.68
2022-10-21T23:53:10.920Z,30.97
2022-10-21T23:56:17.664Z,27.20
2022-10-21T23:59:23.257Z,25.20
